Caroline, Canada
Current Conditions -  °F | °C
As of 5:00 PM on Wednesday 26 Nov 2014 (Local Time) from CYQF Reporting Station
Haze Haze  
Wind Chill: 21°   Ceiling: 800
Heat Index: 27°   Visibility: 4mi
Dew Point: 23°   Wind: 5mph
Humidity: 86%   Direction: 130°SE
Pressure: 30.08"   Gusts: NA
Location:  52.08°N, 114.75°W
Report Text: CYQF 270000Z 13004KT 4SM BR OVC008 M03/M05 A3008 RMK ST8 SLP238
Loading
Personal Weather Stations






























Interactive Weather Map New forecast layout! Learn more

10-Day Weather Forecast

Advertisements
Track Severe Weather on mobile